Time;durP1;ratioP1;P1;durP2;ratioP2;P2;SDS_P1;SDS_P2;PMS_P1;PMS_P2;Temp;Humidity;BMP_temperature;BMP_pressure;BME280_temperature;BME280_humidity;BME280_pressure;Samples;Min_cycle;Max_cycle;Signal;HPM_P1;HPM_P2
2022/09/08 00:01:20;;;;;;;5.33;4.30;;;;;;;23.66;61.16;98162.59;7032822;28;20361;-79
2022/09/08 00:04:42;;;;;;;7.00;4.70;;;;;;;23.91;60.67;98151.94;7032144;28;20459;-79
2022/09/08 00:08:04;;;;;;;6.47;5.57;;;;;;;24.19;60.62;98149.97;7004453;28;20230;-79
2022/09/08 00:11:29;;;;;;;8.47;6.13;;;;;;;24.22;60.13;98128.13;7011163;28;20202;-78
2022/09/08 00:14:50;;;;;;;9.47;5.43;;;;;;;24.47;59.68;98166.13;7032644;28;20268;-78
2022/09/08 00:18:12;;;;;;;8.10;4.67;;;;;;;24.50;59.82;98160.00;7031723;28;20298;-78
2022/09/08 00:21:33;;;;;;;5.93;5.17;;;;;;;24.49;59.98;98152.84;7032274;28;20601;-79
2022/09/08 00:24:55;;;;;;;8.37;4.93;;;;;;;24.29;61.23;98138.69;7032442;28;20218;-79
2022/09/08 00:28:18;;;;;;;5.47;4.53;;;;;;;24.44;60.45;98138.38;7031643;28;20275;-78
2022/09/08 00:31:40;;;;;;;7.50;4.87;;;;;;;24.14;61.10;98139.84;7031980;28;20251;-78
2022/09/08 00:35:01;;;;;;;5.97;4.37;;;;;;;24.45;59.42;98142.75;7033138;28;20216;-78
2022/09/08 00:38:23;;;;;;;6.23;4.30;;;;;;;24.32;59.99;98133.41;7032156;28;20269;-79
2022/09/08 00:41:45;;;;;;;4.87;4.30;;;;;;;24.28;59.95;98139.81;7031952;28;20290;-79
2022/09/08 00:45:10;;;;;;;5.90;3.47;;;;;;;24.33;59.30;98135.03;7030241;28;20322;-79
2022/09/08 00:48:32;;;;;;;3.93;3.50;;;;;;;24.54;58.99;98147.22;7031210;28;20277;-79
2022/09/08 00:51:54;;;;;;;5.03;3.87;;;;;;;23.97;59.27;98153.44;7031739;28;20212;-79
2022/09/08 00:55:16;;;;;;;3.73;3.03;;;;;;;24.20;60.03;98160.66;7031374;28;20265;-79
2022/09/08 00:58:38;;;;;;;7.57;4.17;;;;;;;24.35;59.48;98168.59;7030176;28;20269;-78
2022/09/08 01:02:02;;;;;;;4.63;3.50;;;;;;;23.93;60.48;98177.22;7009090;28;20204;-78
2022/09/08 01:05:27;;;;;;;5.17;3.40;;;;;;;24.12;60.12;98186.16;7003088;28;20233;-79
2022/09/08 01:12:45;;;;;;;7.70;4.60;;;;;;;24.22;61.28;98216.28;7002668;28;20236;-79
2022/09/08 01:16:07;;;;;;;4.53;4.13;;;;;;;24.20;61.80;98221.25;7002677;28;20219;-79
2022/09/08 01:19:32;;;;;;;4.40;4.00;;;;;;;24.62;60.43;98217.38;7002417;28;20345;-78
2022/09/08 01:23:07;;;;;;;7.67;4.10;;;;;;;24.44;60.15;98193.47;7003134;28;20716;-79
2022/09/08 01:26:46;;;;;;;5.13;4.20;;;;;;;24.37;60.80;98202.16;7002764;28;20226;-78
2022/09/08 01:30:10;;;;;;;4.83;4.40;;;;;;;24.00;61.15;98196.06;7002461;28;20191;-79
2022/09/08 01:33:31;;;;;;;6.10;4.10;;;;;;;24.17;60.80;98188.81;7002890;28;20269;-79
2022/09/08 01:36:53;;;;;;;4.37;3.93;;;;;;;24.28;61.23;98197.69;7002866;28;20221;-78
2022/09/08 01:40:14;;;;;;;3.70;3.40;;;;;;;24.54;59.48;98185.81;7002341;28;20250;-78
2022/09/08 01:43:36;;;;;;;4.23;3.83;;;;;;;24.34;60.71;98177.16;7002829;28;20295;-79
2022/09/08 01:47:00;;;;;;;6.20;4.53;;;;;;;24.00;61.74;98176.78;7001418;28;20364;-79
2022/09/08 01:50:22;;;;;;;6.97;4.60;;;;;;;23.94;62.36;98186.25;7002511;28;20353;-78
2022/09/08 01:53:43;;;;;;;5.73;4.43;;;;;;;23.64;63.16;98162.88;7002415;28;20300;-78
2022/09/08 01:57:05;;;;;;;6.20;4.13;;;;;;;23.93;62.90;98187.41;7002115;28;20727;-78
2022/09/08 02:00:26;;;;;;;5.60;4.43;;;;;;;24.25;61.79;98182.59;7001914;28;20238;-79
2022/09/08 02:03:49;;;;;;;4.63;4.13;;;;;;;24.35;60.90;98184.31;7002453;28;20218;-79
2022/09/08 02:07:11;;;;;;;4.00;3.60;;;;;;;24.41;59.93;98167.34;7002557;28;20284;-78
2022/09/08 02:10:32;;;;;;;4.67;4.00;;;;;;;24.04;61.32;98155.78;7002057;28;20290;-78
2022/09/08 02:13:54;;;;;;;5.17;4.17;;;;;;;24.13;61.56;98176.78;7002373;28;20217;-79
2022/09/08 02:17:15;;;;;;;4.83;4.43;;;;;;;24.19;61.68;98175.53;7002453;28;20319;-78
2022/09/08 02:20:38;;;;;;;5.27;4.37;;;;;;;23.85;61.38;98166.06;7001506;28;20289;-78
2022/09/08 02:24:00;;;;;;;4.60;3.90;;;;;;;23.85;61.41;98157.78;7005894;28;20736;-79
2022/09/08 02:27:21;;;;;;;3.57;3.20;;;;;;;23.40;62.65;98165.00;7006802;28;20223;-79
2022/09/08 02:30:43;;;;;;;5.50;3.60;;;;;;;23.64;61.79;98154.63;7007096;28;20266;-78
2022/09/08 02:34:04;;;;;;;3.30;2.97;;;;;;;23.77;60.75;98161.28;7007294;28;20209;-78
2022/09/08 02:37:27;;;;;;;3.13;2.83;;;;;;;23.83;59.54;98152.59;7007150;28;20225;-79
2022/09/08 02:40:49;;;;;;;3.60;2.70;;;;;;;24.02;59.37;98147.81;7007085;28;20257;-78
2022/09/08 02:44:12;;;;;;;3.80;3.13;;;;;;;24.06;58.81;98156.31;7006059;28;20203;-78
2022/09/08 02:47:34;;;;;;;3.67;3.00;;;;;;;23.95;58.89;98130.88;7007220;28;20857;-78
2022/09/08 02:50:59;;;;;;;3.20;2.57;;;;;;;24.26;58.13;98140.13;7007432;28;20296;-78
2022/09/08 02:54:22;;;;;;;3.93;2.50;;;;;;;23.76;59.10;98129.34;7007742;28;20331;-78
2022/09/08 02:57:43;;;;;;;3.03;2.67;;;;;;;23.73;58.30;98132.72;7006796;28;20322;-78
2022/09/08 03:01:06;;;;;;;2.73;2.33;;;;;;;23.89;58.39;98125.81;7007573;28;20290;-78
2022/09/08 03:04:27;;;;;;;4.07;2.50;;;;;;;23.84;58.68;98126.69;7006948;28;20239;-78
2022/09/08 03:07:49;;;;;;;3.00;2.40;;;;;;;24.06;58.39;98117.75;7009746;28;20702;-78
2022/09/08 03:11:11;;;;;;;3.83;2.73;;;;;;;24.07;59.56;98128.44;7006837;28;20207;-78
2022/09/08 03:14:33;;;;;;;3.77;2.70;;;;;;;24.04;59.34;98128.22;7007599;28;20261;-78
2022/09/08 03:17:55;;;;;;;8.97;2.97;;;;;;;24.01;59.20;98126.09;7006649;28;20233;-79
2022/09/08 03:21:17;;;;;;;5.57;2.70;;;;;;;23.74;58.89;98106.81;7006889;28;20769;-78
2022/09/08 03:24:38;;;;;;;3.10;2.80;;;;;;;23.85;58.84;98113.75;7006251;28;20200;-80
2022/09/08 03:28:01;;;;;;;2.50;2.00;;;;;;;23.98;58.26;98146.81;7005502;28;20229;-79
2022/09/08 03:31:23;;;;;;;2.83;2.07;;;;;;;23.58;58.97;98128.31;7005366;28;20224;-79
2022/09/08 03:34:44;;;;;;;2.47;1.83;;;;;;;23.60;58.24;98130.78;7004857;28;20349;-79
2022/09/08 03:38:06;;;;;;;3.10;2.10;;;;;;;23.17;58.65;98104.59;7004910;28;20293;-79
2022/09/08 03:41:28;;;;;;;3.47;1.80;;;;;;;23.71;57.89;98145.97;7005437;28;20382;-79
2022/09/08 03:44:52;;;;;;;3.80;1.67;;;;;;;23.60;57.70;98145.34;7005088;28;20211;-79
2022/09/08 03:48:14;;;;;;;2.33;1.77;;;;;;;23.47;58.06;98140.63;7004389;28;20691;-79
2022/09/08 03:51:36;;;;;;;2.50;1.70;;;;;;;23.61;58.17;98137.91;7005591;28;20567;-79
2022/09/08 03:54:57;;;;;;;2.50;1.90;;;;;;;23.59;57.99;98129.94;7006697;28;20301;-78
2022/09/08 03:58:19;;;;;;;1.73;1.60;;;;;;;23.53;57.57;98138.59;7010301;28;20679;-79
2022/09/08 04:01:42;;;;;;;2.83;1.90;;;;;;;23.37;58.36;98126.25;7004260;28;20731;-79
2022/09/08 04:05:04;;;;;;;3.37;2.00;;;;;;;23.46;58.41;98119.75;7003783;28;20347;-78
2022/09/08 04:08:25;;;;;;;1.77;1.67;;;;;;;23.66;57.70;98138.59;7003186;28;20211;-79
2022/09/08 04:11:48;;;;;;;1.80;1.70;;;;;;;23.42;58.87;98137.97;7011452;28;20252;-79
2022/09/08 04:15:10;;;;;;;1.60;1.50;;;;;;;23.11;59.42;98130.53;7031421;28;20694;-79
2022/09/08 04:18:33;;;;;;;1.67;1.57;;;;;;;22.88;59.99;98121.31;7030447;28;20689;-79
2022/09/08 04:21:54;;;;;;;1.87;1.77;;;;;;;22.73;60.20;98127.06;7031119;28;20226;-78
2022/09/08 04:25:16;;;;;;;3.23;1.40;;;;;;;22.89;59.39;98131.19;7031193;28;20261;-79
2022/09/08 04:28:39;;;;;;;2.53;1.63;;;;;;;23.19;58.67;98125.19;7030038;28;20347;-78
2022/09/08 04:32:02;;;;;;;2.03;1.53;;;;;;;23.35;58.19;98136.72;7029959;28;20214;-79
2022/09/08 04:35:25;;;;;;;1.43;1.40;;;;;;;23.21;57.48;98138.66;7030571;28;20222;-79
2022/09/08 04:38:47;;;;;;;1.77;1.67;;;;;;;23.31;57.59;98133.78;7011322;28;20647;-79
2022/09/08 04:42:08;;;;;;;2.20;1.43;;;;;;;22.84;58.74;98133.22;7003361;28;20230;-79
2022/09/08 04:45:30;;;;;;;1.63;1.57;;;;;;;23.09;58.38;98144.63;7000932;28;20222;-79
2022/09/08 04:48:52;;;;;;;1.30;1.20;;;;;;;22.87;59.28;98149.94;7002780;28;20706;-79
2022/09/08 04:52:15;;;;;;;2.13;1.70;;;;;;;23.02;59.03;98155.16;6995407;28;20195;-79
2022/09/08 04:55:38;;;;;;;2.50;1.80;;;;;;;23.15;58.84;98162.66;7027784;28;20289;-79
2022/09/08 04:59:00;;;;;;;1.63;1.53;;;;;;;22.99;58.56;98165.94;7025781;28;20216;-79
2022/09/08 05:02:22;;;;;;;1.60;1.40;;;;;;;22.95;58.59;98154.72;7031761;28;20241;-79
2022/09/08 05:05:43;;;;;;;2.03;1.47;;;;;;;22.98;58.07;98156.91;7019503;28;20728;-79
2022/09/08 05:09:06;;;;;;;1.63;1.50;;;;;;;22.92;58.33;98127.84;7024089;28;20210;-79
2022/09/08 05:12:28;;;;;;;1.50;1.40;;;;;;;23.02;58.87;98160.66;7032290;28;20202;-79
2022/09/08 05:15:49;;;;;;;2.00;1.60;;;;;;;22.76;59.62;98164.94;7032299;28;20247;-78
2022/09/08 05:19:12;;;;;;;1.87;1.50;;;;;;;22.79;59.56;98166.28;7026920;28;20250;-79
2022/09/08 05:22:34;;;;;;;1.60;1.50;;;;;;;22.90;59.00;98165.81;7003218;28;20367;-79
2022/09/08 05:25:59;;;;;;;1.70;1.60;;;;;;;22.18;61.86;98181.97;7003645;28;20291;-79
2022/09/08 05:29:22;;;;;;;1.30;1.23;;;;;;;22.29;61.29;98191.69;7002620;28;20213;-81
2022/09/08 05:32:44;;;;;;;1.53;1.43;;;;;;;22.63;60.87;98200.59;7006702;28;20198;-78
2022/09/08 05:36:10;;;;;;;2.30;1.60;;;;;;;22.02;60.71;98128.38;7019407;28;20226;-78
2022/09/08 05:39:31;;;;;;;1.70;1.40;;;;;;;22.39;61.01;98203.38;7003044;28;20182;-79
2022/09/08 05:42:54;;;;;;;1.50;1.40;;;;;;;22.29;61.29;98202.69;7003187;28;20260;-79
2022/09/08 05:46:16;;;;;;;1.60;1.50;;;;;;;22.15;61.90;98215.50;7002054;28;20255;-78
2022/09/08 05:49:37;;;;;;;3.67;1.60;;;;;;;22.17;61.38;98225.09;7003703;28;20193;-79
2022/09/08 05:52:59;;;;;;;1.47;1.27;;;;;;;21.64;63.07;98223.47;7030907;28;20268;-79
2022/09/08 05:56:20;;;;;;;2.47;1.53;;;;;;;22.15;61.66;98224.56;7030621;28;20239;-79
2022/09/08 05:59:43;;;;;;;2.03;1.60;;;;;;;22.31;60.80;98223.25;7029854;28;20350;-79
2022/09/08 06:03:05;;;;;;;2.53;1.50;;;;;;;22.58;60.86;98242.72;7030274;28;20212;-79
2022/09/08 06:06:27;;;;;;;2.17;1.63;;;;;;;22.07;62.17;98233.44;7029945;28;20227;-79
2022/09/08 06:09:49;;;;;;;1.60;1.50;;;;;;;22.49;61.10;98233.47;7002366;28;20200;-78
2022/09/08 06:13:10;;;;;;;1.33;1.30;;;;;;;22.14;62.15;98244.88;7002956;28;20240;-79
2022/09/08 06:16:34;;;;;;;1.60;1.30;;;;;;;22.61;60.10;98246.81;7001734;28;20229;-78
2022/09/08 06:19:56;;;;;;;1.57;1.47;;;;;;;22.49;60.38;98249.97;7002371;28;20286;-78
2022/09/08 06:23:17;;;;;;;1.30;1.20;;;;;;;22.77;59.75;98251.00;7002302;28;20302;-78
2022/09/08 06:27:07;;;;;;;1.33;1.23;;;;;;;22.66;60.12;98252.22;7002109;28;20315;-78
2022/09/08 06:30:28;;;;;;;2.03;1.60;;;;;;;22.74;59.38;98255.16;6965363;28;20215;-78
2022/09/08 06:33:51;;;;;;;1.27;1.17;;;;;;;22.47;60.15;98270.59;7001360;28;20284;-78
2022/09/08 06:37:23;;;;;;;1.50;1.40;;;;;;;22.60;59.64;98237.72;7001990;28;20289;-78
2022/09/08 06:40:49;;;;;;;1.70;1.47;;;;;;;22.56;60.68;98266.09;7001565;28;20260;-78
2022/09/08 06:44:16;;;;;;;3.00;1.50;;;;;;;22.67;61.16;98262.91;7000401;28;20206;-78
2022/09/08 06:47:40;;;;;;;1.47;1.37;;;;;;;22.67;59.54;98251.91;7001639;28;20237;-78
2022/09/08 06:51:11;;;;;;;2.30;1.33;;;;;;;22.64;59.16;98246.19;7021681;28;20611;-78
2022/09/08 06:54:44;;;;;;;1.30;1.20;;;;;;;22.13;59.74;98272.66;7029546;28;20227;-78
2022/09/08 06:58:21;;;;;;;1.20;1.20;;;;;;;22.41;60.17;98247.84;7028928;28;20251;-78
2022/09/08 07:01:47;;;;;;;1.20;1.10;;;;;;;22.77;58.37;98257.28;7035068;28;20274;-78
2022/09/08 07:05:20;;;;;;;1.27;1.20;;;;;;;22.47;59.15;98274.19;7036884;28;20318;-79
2022/09/08 07:08:52;;;;;;;3.10;1.20;;;;;;;22.43;58.71;98280.56;7011516;28;20671;-79
2022/09/08 07:12:36;;;;;;;1.60;1.20;;;;;;;22.24;58.88;98280.47;7007010;28;20683;-78
2022/09/08 07:16:03;;;;;;;2.20;1.27;;;;;;;22.87;56.66;98267.31;7030569;28;20256;-80
2022/09/08 07:19:26;;;;;;;1.93;1.20;;;;;;;23.08;57.40;98280.47;7034452;28;20277;-78
2022/09/08 07:22:50;;;;;;;1.23;1.13;;;;;;;22.88;56.82;98278.03;7033615;28;20314;-78
2022/09/08 07:26:19;;;;;;;1.50;1.40;;;;;;;22.58;57.87;98285.84;7021707;28;20462;-78
2022/09/08 07:29:43;;;;;;;1.47;1.13;;;;;;;23.09;55.80;98284.03;7022776;28;20392;-78
2022/09/08 07:33:14;;;;;;;1.20;1.10;;;;;;;23.08;55.81;98288.72;7005970;28;20568;-78
2022/09/08 07:36:39;;;;;;;1.07;1.07;;;;;;;23.22;55.77;98289.66;7005895;28;20250;-77
2022/09/08 07:40:04;;;;;;;0.80;0.80;;;;;;;23.33;54.26;98282.03;7005771;28;20680;-78
2022/09/08 07:43:27;;;;;;;1.87;1.40;;;;;;;23.27;53.94;98289.56;7005802;28;20341;-78
2022/09/08 07:47:07;;;;;;;3.27;1.13;;;;;;;23.07;54.62;98298.09;7003782;28;20627;-78
2022/09/08 07:54:24;;;;;;;1.50;1.40;;;;;;;23.18;55.71;98291.34;7004763;28;20213;-78
2022/09/08 07:57:54;;;;;;;3.57;1.30;;;;;;;23.29;55.45;98301.09;7003698;28;20267;-79
2022/09/08 08:01:28;;;;;;;1.30;1.23;;;;;;;23.22;55.69;98306.16;7005606;28;20239;-78
2022/09/08 08:04:58;;;;;;;1.60;1.13;;;;;;;23.15;55.01;98302.09;7033046;28;20243;-78
2022/09/08 08:08:23;;;;;;;1.77;1.33;;;;;;;23.74;54.68;98288.50;7014027;28;20183;-77
2022/09/08 08:11:53;;;;;;;2.00;1.37;;;;;;;24.68;51.05;98299.69;7006000;28;20227;-78
2022/09/08 08:15:19;;;;;;;1.50;1.40;;;;;;;24.25;52.40;98303.81;7006912;28;20310;-79
2022/09/08 08:18:50;;;;;;;1.27;1.10;;;;;;;24.11;52.86;98311.25;7011793;28;20325;-78
2022/09/08 08:22:16;;;;;;;2.53;1.50;;;;;;;24.32;51.88;98318.03;7032951;28;20357;-78
2022/09/08 08:25:43;;;;;;;1.70;1.43;;;;;;;25.57;49.50;98322.75;7032463;28;20568;-79
2022/09/08 08:29:25;;;;;;;1.10;1.10;;;;;;;25.34;48.48;98307.28;7032288;28;20245;-79
2022/09/08 08:32:56;;;;;;;0.97;0.97;;;;;;;26.13;46.50;98303.66;7032703;28;20205;-79
2022/09/08 08:36:22;;;;;;;1.30;1.17;;;;;;;26.20;45.65;98302.06;7016616;28;20308;-79
2022/09/08 08:39:45;;;;;;;3.63;1.50;;;;;;;26.01;46.54;98325.53;7013512;28;20201;-79
2022/09/08 08:43:21;;;;;;;1.00;1.00;;;;;;;25.79;45.61;98292.38;7032661;28;20234;-80
2022/09/08 08:47:15;;;;;;;1.63;1.37;;;;;;;25.58;46.82;98322.44;7032391;28;20319;-80
2022/09/08 08:50:58;;;;;;;1.67;1.27;;;;;;;24.75;46.61;98308.34;7033190;28;20803;-80
2022/09/08 08:54:42;;;;;;;1.50;1.20;;;;;;;25.40;46.23;98331.72;7012875;28;20289;-80
2022/09/08 08:58:17;;;;;;;1.13;1.00;;;;;;;25.72;43.86;98341.72;7005307;28;20295;-80
2022/09/08 09:02:14;;;;;;;1.53;1.27;;;;;;;24.98;46.29;98345.91;7006418;28;20266;-80
2022/09/08 09:06:17;;;;;;;2.67;1.17;;;;;;;25.47;45.76;98340.38;6958429;28;20700;-80
2022/09/08 09:09:51;;;;;;;2.13;1.30;;;;;;;24.99;46.70;98349.47;7001002;28;20634;-80
2022/09/08 09:13:40;;;;;;;2.47;1.20;;;;;;;25.63;45.32;98346.34;7033733;28;20208;-80
2022/09/08 09:17:18;;;;;;;1.30;1.20;;;;;;;24.86;45.88;98342.84;7033924;28;20233;-80
2022/09/08 09:20:51;;;;;;;1.77;1.30;;;;;;;24.50;47.01;98341.91;7028013;28;20231;-79
2022/09/08 09:24:16;;;;;;;1.80;1.13;;;;;;;24.78;46.13;98340.00;7030802;28;20295;-79
2022/09/08 09:27:42;;;;;;;1.40;1.30;;;;;;;24.70;46.61;98332.44;7027533;28;20230;-80
2022/09/08 09:31:21;;;;;;;2.57;1.30;;;;;;;24.98;45.93;98326.59;7032880;28;20300;-78
2022/09/08 09:35:16;;;;;;;1.37;1.33;;;;;;;25.44;45.09;98338.25;7031782;28;20295;-80
2022/09/08 09:38:58;;;;;;;1.20;1.10;;;;;;;25.94;44.17;98347.25;7016530;28;20230;-79
2022/09/08 09:42:33;;;;;;;2.30;1.20;;;;;;;26.05;42.61;98338.41;7019992;28;20304;-79
2022/09/08 09:46:13;;;;;;;1.00;1.00;;;;;;;25.46;44.68;98329.66;7004180;28;20225;-79
2022/09/08 09:49:51;;;;;;;3.40;1.27;;;;;;;24.26;45.46;98324.72;7026909;28;20230;-79
2022/09/08 09:53:31;;;;;;;1.00;1.00;;;;;;;24.55;46.08;98333.53;7031862;28;20644;-79
2022/09/08 09:57:17;;;;;;;2.00;1.13;;;;;;;24.65;46.12;98341.63;7040242;28;20793;-79
2022/09/08 10:00:54;;;;;;;1.10;1.00;;;;;;;24.87;46.16;98300.34;7045258;28;20202;-79
2022/09/08 10:04:44;;;;;;;1.20;1.00;;;;;;;25.00;45.35;98323.50;7032130;28;20187;-79
2022/09/08 10:08:51;;;;;;;1.03;1.00;;;;;;;26.62;42.84;98328.28;7025362;28;20197;-79
2022/09/08 10:12:46;;;;;;;1.40;1.20;;;;;;;25.80;44.11;98333.50;7023799;28;20275;-79
2022/09/08 10:16:51;;;;;;;1.00;1.00;;;;;;;26.53;42.68;98330.16;7026292;28;20224;-79
2022/09/08 10:20:30;;;;;;;1.47;1.30;;;;;;;27.35;41.81;98322.75;7004477;28;20206;-79
2022/09/08 10:24:17;;;;;;;1.27;1.13;;;;;;;27.55;41.01;98336.00;7003733;28;20919;-80
2022/09/08 10:28:11;;;;;;;1.40;1.07;;;;;;;28.53;38.38;98326.53;7002324;28;20367;-79
2022/09/08 10:32:04;;;;;;;2.63;1.03;;;;;;;27.95;38.63;98329.13;7008792;28;20552;-79
2022/09/08 10:35:45;;;;;;;0.80;0.80;;;;;;;28.01;38.08;98325.06;7031407;28;20313;-80
2022/09/08 10:39:15;;;;;;;1.37;1.00;;;;;;;27.58;39.35;98286.28;7028591;28;20266;-80
2022/09/08 10:42:43;;;;;;;1.50;1.07;;;;;;;27.71;39.28;98306.66;7030272;28;20221;-81
2022/09/08 10:46:28;;;;;;;1.07;0.87;;;;;;;27.50;39.78;98323.13;7036260;28;20319;-81
2022/09/08 10:50:17;;;;;;;1.57;1.10;;;;;;;26.52;42.21;98331.31;7037089;28;20243;-79
2022/09/08 10:53:58;;;;;;;0.80;0.80;;;;;;;26.85;43.10;98314.03;7037125;28;20205;-80
2022/09/08 10:57:32;;;;;;;1.47;1.00;;;;;;;26.86;42.38;98326.75;7028564;28;20715;-79
2022/09/08 11:01:03;;;;;;;1.17;0.97;;;;;;;27.15;41.12;98320.63;7012363;28;20223;-79
2022/09/08 11:04:40;;;;;;;1.10;0.90;;;;;;;26.99;39.87;98319.44;7008574;28;20263;-80
2022/09/08 11:08:30;;;;;;;0.90;0.90;;;;;;;27.23;39.55;98314.28;7008353;28;20359;-79
2022/09/08 11:12:17;;;;;;;1.07;0.97;;;;;;;27.05;40.07;98301.53;7031906;28;20255;-81
2022/09/08 11:16:15;;;;;;;2.27;1.00;;;;;;;26.78;39.87;98329.50;7021310;28;20311;-79
2022/09/08 11:19:39;;;;;;;1.80;1.03;;;;;;;26.92;40.68;98322.69;6988840;28;20213;-80
2022/09/08 11:23:11;;;;;;;0.90;0.90;;;;;;;26.94;40.32;98337.00;7008627;28;20251;-80
2022/09/08 11:26:48;;;;;;;1.20;1.10;;;;;;;26.86;43.03;98337.81;7009249;28;20790;-82
2022/09/08 11:30:18;;;;;;;2.60;1.73;;;;;;;26.55;43.51;98319.66;7008521;28;20200;-80
2022/09/08 11:33:59;;;;;;;1.93;1.30;;;;;;;26.37;45.03;98340.84;7008892;28;20204;-81
2022/09/08 11:37:35;;;;;;;1.77;1.10;;;;;;;25.38;44.56;98327.63;7012063;28;20216;-80
2022/09/08 11:41:23;;;;;;;2.27;1.33;;;;;;;25.79;44.64;98347.63;7010131;28;20260;-80
2022/09/08 11:44:51;;;;;;;1.33;1.20;;;;;;;25.24;44.96;98355.28;7009511;28;20284;-80
2022/09/08 11:48:43;;;;;;;1.30;1.20;;;;;;;25.61;44.28;98335.63;7009069;28;20271;-80
2022/09/08 11:52:20;;;;;;;1.37;1.20;;;;;;;25.79;43.20;98350.38;7009515;28;20279;-80
2022/09/08 11:56:19;;;;;;;1.30;1.20;;;;;;;26.89;42.42;98359.28;7008106;28;20605;-80
2022/09/08 12:00:04;;;;;;;1.10;1.00;;;;;;;26.86;39.80;98359.94;6977440;28;20248;-80
2022/09/08 12:03:41;;;;;;;1.10;1.00;;;;;;;26.17;41.24;98349.69;7020879;28;20212;-80
2022/09/08 12:07:36;;;;;;;2.70;1.30;;;;;;;25.22;44.21;98353.91;7040720;28;20213;-80
2022/09/08 12:11:11;;;;;;;1.67;0.97;;;;;;;26.91;40.84;98347.91;7037200;28;20215;-80
2022/09/08 12:14:42;;;;;;;2.10;1.30;;;;;;;27.48;38.71;98349.50;7058571;28;20193;-80
2022/09/08 12:18:14;;;;;;;2.33;1.10;;;;;;;27.08;40.54;98348.75;7035220;28;20234;-80
2022/09/08 12:22:06;;;;;;;2.20;1.10;;;;;;;27.50;39.42;98347.22;7010082;28;20259;-81
2022/09/08 12:25:48;;;;;;;1.83;1.10;;;;;;;27.21;39.40;98350.63;7023295;28;20734;-80
2022/09/08 12:29:21;;;;;;;2.00;1.40;;;;;;;27.15;40.94;98342.75;7033677;28;20342;-80
2022/09/08 12:33:16;;;;;;;2.10;1.13;;;;;;;26.93;40.76;98349.22;7030973;28;20254;-80
2022/09/08 12:36:41;;;;;;;1.03;0.93;;;;;;;26.83;39.58;98332.91;6983948;28;20225;-80
2022/09/08 12:40:20;;;;;;;3.47;1.30;;;;;;;26.95;43.92;98355.25;7011312;28;20194;-83
2022/09/08 12:43:42;;;;;;;1.83;1.10;;;;;;;27.14;43.36;98358.53;7026283;28;20241;-82
2022/09/08 12:47:13;;;;;;;1.80;1.30;;;;;;;27.03;40.80;98345.34;7006910;28;20383;-82
2022/09/08 12:50:46;;;;;;;1.50;1.23;;;;;;;26.41;41.59;98355.66;7006219;28;20266;-81
2022/09/08 12:54:21;;;;;;;1.20;1.10;;;;;;;27.31;41.71;98310.72;7011886;28;20197;-82
2022/09/08 12:57:55;;;;;;;1.90;1.00;;;;;;;27.76;40.41;98340.53;7034551;28;20247;-82
2022/09/08 13:01:20;;;;;;;2.00;1.00;;;;;;;27.70;40.22;98336.31;7033908;28;20776;-82
2022/09/08 13:04:54;;;;;;;2.50;1.10;;;;;;;28.14;39.33;98335.13;7034543;28;20231;-81
2022/09/08 13:08:29;;;;;;;2.00;1.40;;;;;;;28.21;37.66;98339.03;7032750;28;20279;-81
2022/09/08 13:12:03;;;;;;;3.50;1.30;;;;;;;28.07;38.56;98340.38;7014858;28;20301;-81
2022/09/08 13:15:28;;;;;;;2.67;1.30;;;;;;;29.00;37.14;98317.84;7011548;28;20277;-80
2022/09/08 13:18:59;;;;;;;1.77;1.00;;;;;;;28.29;37.15;98338.19;7019109;28;20752;-81
2022/09/08 13:22:28;;;;;;;2.47;1.30;;;;;;;28.57;34.87;98321.94;7007840;28;20326;-81
2022/09/08 13:25:56;;;;;;;3.13;1.00;;;;;;;28.66;34.97;98311.63;7007064;28;20313;-81
2022/09/08 13:29:43;;;;;;;2.43;1.63;;;;;;;28.41;34.88;98310.59;7005676;28;20257;-81
2022/09/08 13:33:23;;;;;;;3.07;1.30;;;;;;;28.28;35.41;98328.25;7032391;28;20282;-81
2022/09/08 13:36:54;;;;;;;1.63;0.90;;;;;;;28.21;34.61;98327.09;7009208;28;20300;-83
2022/09/08 13:40:22;;;;;;;2.27;1.17;;;;;;;28.21;34.07;98330.72;7021700;28;20224;-81
2022/09/08 13:44:19;;;;;;;1.13;1.03;;;;;;;27.57;34.81;98317.06;7030304;28;20240;-82
2022/09/08 13:48:07;;;;;;;1.93;1.10;;;;;;;27.76;35.54;98315.59;7008293;28;20622;-81
2022/09/08 13:51:49;;;;;;;5.23;1.10;;;;;;;27.64;34.46;98298.00;7026368;28;20560;-81
2022/09/08 13:55:26;;;;;;;0.87;0.87;;;;;;;27.50;34.33;98286.28;7027382;28;20228;-81
2022/09/08 13:58:49;;;;;;;1.63;0.90;;;;;;;27.65;34.55;98302.44;7004411;28;20189;-81
2022/09/08 14:02:22;;;;;;;1.50;1.00;;;;;;;28.07;33.99;98305.13;7004402;28;20226;-82
2022/09/08 14:05:46;;;;;;;2.63;1.13;;;;;;;27.98;33.97;98279.41;7014603;28;20372;-81
2022/09/08 14:09:17;;;;;;;1.80;1.17;;;;;;;27.97;34.00;98285.28;7030293;28;20275;-82
2022/09/08 14:12:50;;;;;;;2.07;1.00;;;;;;;28.68;32.81;98282.41;7004926;28;20685;-82
2022/09/08 14:16:18;;;;;;;1.90;0.80;;;;;;;29.02;32.46;98273.88;7013575;28;20255;-82
2022/09/08 14:19:46;;;;;;;1.67;1.00;;;;;;;28.11;31.99;98295.00;7027515;28;20205;-82
2022/09/08 14:23:19;;;;;;;1.13;0.90;;;;;;;27.93;33.32;98303.69;7035085;28;20650;-82
2022/09/08 14:27:05;;;;;;;2.90;1.40;;;;;;;27.90;32.70;98304.38;7010252;28;20699;-81
2022/09/08 14:30:30;;;;;;;1.57;1.03;;;;;;;28.07;33.08;98296.00;7009255;28;20672;-82
2022/09/08 14:33:52;;;;;;;2.60;1.30;;;;;;;28.12;33.22;98307.72;7010862;28;20259;-83
2022/09/08 14:37:15;;;;;;;1.50;1.00;;;;;;;28.04;31.90;98297.47;7009741;28;20313;-81
2022/09/08 14:40:44;;;;;;;2.13;1.17;;;;;;;28.09;31.36;98283.44;7009779;28;20285;-81
2022/09/08 14:44:26;;;;;;;1.63;1.13;;;;;;;28.57;30.79;98288.66;7010701;28;20230;-81
2022/09/08 14:48:07;;;;;;;1.57;1.40;;;;;;;27.91;31.63;98286.59;7010176;28;20237;-81
2022/09/08 14:51:37;;;;;;;2.10;1.00;;;;;;;27.76;31.28;98274.03;7010631;28;20661;-81
2022/09/08 14:55:08;;;;;;;1.50;1.20;;;;;;;27.32;31.91;98290.22;7010099;28;20280;-81
2022/09/08 14:58:42;;;;;;;3.30;1.37;;;;;;;27.46;32.43;98285.31;7009863;28;20292;-80
2022/09/08 15:02:20;;;;;;;3.80;0.97;;;;;;;27.28;33.03;98289.22;7009707;28;20205;-81
2022/09/08 15:05:43;;;;;;;2.20;1.10;;;;;;;27.71;32.62;98288.06;7009507;28;20232;-81
2022/09/08 15:09:32;;;;;;;2.93;1.30;;;;;;;26.64;34.09;98290.88;7009158;28;20721;-80
2022/09/08 15:13:14;;;;;;;2.90;1.10;;;;;;;27.06;33.83;98273.56;7009426;28;20433;-81
2022/09/08 15:16:40;;;;;;;3.77;1.30;;;;;;;27.45;33.61;98259.59;7009087;28;20273;-81
2022/09/08 15:20:09;;;;;;;2.53;1.57;;;;;;;27.47;34.19;98278.63;7008300;28;20229;-80
2022/09/08 15:23:34;;;;;;;3.00;1.23;;;;;;;27.55;34.37;98284.16;7008411;28;20289;-81
2022/09/08 15:26:59;;;;;;;2.83;1.20;;;;;;;27.64;33.85;98292.47;7008973;28;20309;-80
2022/09/08 15:30:22;;;;;;;3.97;1.00;;;;;;;27.96;34.10;98261.47;7005802;28;20279;-81
2022/09/08 15:33:53;;;;;;;1.47;1.37;;;;;;;28.02;33.35;98272.03;7008837;28;20314;-81
2022/09/08 15:37:24;;;;;;;2.10;1.17;;;;;;;27.78;33.22;98276.53;7030988;28;20239;-81
2022/09/08 15:41:08;;;;;;;2.60;1.33;;;;;;;27.88;32.65;98276.16;7036883;28;20218;-81
2022/09/08 15:44:43;;;;;;;2.30;1.43;;;;;;;27.65;32.58;98277.50;7037168;28;20205;-81
2022/09/08 15:48:17;;;;;;;3.43;1.20;;;;;;;27.70;33.29;98283.66;7036622;28;20225;-81
2022/09/08 15:51:45;;;;;;;3.97;1.60;;;;;;;27.05;33.42;98262.78;7036550;28;20229;-81
2022/09/08 15:55:12;;;;;;;3.80;1.23;;;;;;;27.35;33.65;98282.06;7036093;28;20234;-81
2022/09/08 15:58:35;;;;;;;2.73;1.23;;;;;;;27.28;33.67;98270.66;7036628;28;20194;-81
2022/09/08 16:02:01;;;;;;;2.67;1.13;;;;;;;27.37;33.81;98273.44;7036165;28;20205;-81
2022/09/08 16:05:28;;;;;;;3.13;1.23;;;;;;;27.66;33.05;98240.34;7036224;28;20865;-81
2022/09/08 16:09:01;;;;;;;3.70;1.30;;;;;;;27.14;33.25;98256.13;7035966;28;20205;-81
2022/09/08 16:12:27;;;;;;;2.27;1.40;;;;;;;26.89;33.65;98243.09;7034947;28;20207;-80
2022/09/08 16:15:50;;;;;;;1.93;1.70;;;;;;;27.49;33.89;98277.16;7035421;28;20282;-79
2022/09/08 16:19:15;;;;;;;6.80;3.60;;;;;;;27.33;33.93;98267.75;7026532;28;20949;-79
2022/09/08 16:22:37;;;;;;;3.97;1.17;;;;;;;27.26;33.81;98274.91;7006470;28;20210;-79
2022/09/08 16:26:09;;;;;;;3.07;1.40;;;;;;;27.53;33.75;98286.44;7041514;28;20235;-79
2022/09/08 16:29:44;;;;;;;6.07;1.77;;;;;;;27.32;34.41;98284.66;7036837;28;20261;-79
2022/09/08 16:33:22;;;;;;;4.10;1.47;;;;;;;27.32;34.02;98279.13;7035193;28;20548;-79
2022/09/08 16:36:45;;;;;;;2.50;1.20;;;;;;;27.07;34.83;98283.47;7034499;28;20301;-80